Time;durP1;ratioP1;P1;durP2;ratioP2;P2;SDS_P1;SDS_P2;PMS_P1;PMS_P2;Temp;Humidity;BMP_temperature;BMP_pressure;BME280_temperature;BME280_humidity;BME280_pressure;Samples;Min_cycle;Max_cycle;Signal;HPM_P1;HPM_P2
2024/01/17 00:00:54;;;;;;;9.40;5.77;;;;;;;;;;5098072;28;20567;-35
2024/01/17 00:03:26;;;;;;;14.10;6.53;;;;;;;;;;5095469;28;20243;-31
2024/01/17 00:06:00;;;;;;;11.03;6.13;;;;;;;;;;5080313;28;20208;-35
2024/01/17 00:08:28;;;;;;;9.80;5.90;;;;;;;;;;5087238;28;20207;-34
2024/01/17 00:10:58;;;;;;;11.40;6.67;;;;;;;;;;5091380;28;20645;-33
2024/01/17 00:13:43;;;;;;;9.83;6.67;;;;;;;;;;5353793;22;20238;-25
2024/01/17 00:16:27;;;;;;;11.13;6.13;;;;;;;;;;5054197;28;20267;-26
2024/01/17 00:19:02;;;;;;;10.70;6.03;;;;;;;;;;5057063;28;20230;-25
2024/01/17 00:21:37;;;;;;;11.60;5.73;;;;;;;;;;5067594;28;20236;-25
2024/01/17 00:24:09;;;;;;;12.30;6.17;;;;;;;;;;5074131;28;20215;-24
2024/01/17 00:26:39;;;;;;;9.07;5.47;;;;;;;;;;5072827;28;20209;-25
2024/01/17 00:29:15;;;;;;;11.47;5.80;;;;;;;;;;5067863;28;20201;-25
2024/01/17 00:31:44;;;;;;;9.00;5.70;;;;;;;;;;5081504;28;20213;-27
2024/01/17 00:34:22;;;;;;;10.63;5.77;;;;;;;;;;5067657;28;20205;-24
2024/01/17 00:37:00;;;;;;;10.43;5.63;;;;;;;;;;5071208;28;20205;-25
2024/01/17 00:39:36;;;;;;;15.00;7.03;;;;;;;;;;5088700;28;20269;-25
2024/01/17 00:42:09;;;;;;;10.57;5.53;;;;;;;;;;5080474;28;20209;-24
2024/01/17 00:44:39;;;;;;;16.40;6.73;;;;;;;;;;5068707;28;20217;-26
2024/01/17 00:47:08;;;;;;;9.30;6.07;;;;;;;;;;5088174;28;20201;-24
2024/01/17 00:49:43;;;;;;;10.77;5.70;;;;;;;;;;5073887;23;20507;-25
2024/01/17 00:52:11;;;;;;;10.83;6.30;;;;;;;;;;5072654;28;20204;-25
2024/01/17 00:54:39;;;;;;;12.57;6.03;;;;;;;;;;5084372;28;20676;-25
2024/01/17 00:57:12;;;;;;;8.90;5.87;;;;;;;;;;5079788;28;20227;-24
2024/01/17 00:59:40;;;;;;;11.10;5.77;;;;;;;;;;5068430;28;20235;-27
2024/01/17 01:02:08;;;;;;;9.90;5.80;;;;;;;;;;5090459;28;20283;-27
2024/01/17 01:04:42;;;;;;;9.70;5.73;;;;;;;;;;5093953;28;20208;-27
2024/01/17 01:07:15;;;;;;;11.23;6.47;;;;;;;;;;5079111;28;20208;-25
2024/01/17 01:09:43;;;;;;;10.03;6.60;;;;;;;;;;5092815;28;20593;-25
2024/01/17 01:12:12;;;;;;;7.67;5.50;;;;;;;;;;5093746;28;20207;-26
2024/01/17 01:14:42;;;;;;;9.93;6.30;;;;;;;;;;5096313;28;20209;-26
2024/01/17 01:17:15;;;;;;;11.77;6.63;;;;;;;;;;5096454;28;20564;-25
2024/01/17 01:19:43;;;;;;;11.20;6.13;;;;;;;;;;5087742;28;20225;-26
2024/01/17 01:22:21;;;;;;;11.67;6.20;;;;;;;;;;5096989;28;20204;-24
2024/01/17 01:24:55;;;;;;;11.80;6.50;;;;;;;;;;5096057;28;20214;-27
2024/01/17 01:27:25;;;;;;;13.57;7.87;;;;;;;;;;5093381;28;20290;-25
2024/01/17 01:29:53;;;;;;;9.47;6.53;;;;;;;;;;5096904;28;20230;-25
2024/01/17 01:32:22;;;;;;;9.37;6.53;;;;;;;;;;5089146;28;20204;-27
2024/01/17 01:34:51;;;;;;;9.50;6.00;;;;;;;;;;5083153;28;20229;-26
2024/01/17 01:37:21;;;;;;;10.53;5.87;;;;;;;;;;5084211;28;20203;-27
2024/01/17 01:39:52;;;;;;;12.63;7.17;;;;;;;;;;5092041;28;20216;-26
2024/01/17 01:42:34;;;;;;;10.37;6.13;;;;;;;;;;5093011;28;20204;-24
2024/01/17 01:45:02;;;;;;;12.50;6.80;;;;;;;;;;5084757;28;20216;-25
2024/01/17 01:47:43;;;;;;;13.50;6.77;;;;;;;;;;5099079;28;20208;-26
2024/01/17 01:50:13;;;;;;;12.10;6.83;;;;;;;;;;5085080;28;20242;-24
2024/01/17 01:52:47;;;;;;;12.10;7.23;;;;;;;;;;5091762;28;20287;-26
2024/01/17 01:55:21;;;;;;;10.97;6.60;;;;;;;;;;5091737;28;20287;-26
2024/01/17 01:57:50;;;;;;;12.30;7.13;;;;;;;;;;5088980;28;20229;-26
2024/01/17 02:00:22;;;;;;;13.10;6.40;;;;;;;;;;5086404;28;20216;-24
2024/01/17 02:02:51;;;;;;;10.10;6.87;;;;;;;;;;5086947;28;20758;-25
2024/01/17 02:05:25;;;;;;;8.63;5.77;;;;;;;;;;5081675;28;20227;-26
2024/01/17 02:07:59;;;;;;;9.87;6.00;;;;;;;;;;5091881;28;20204;-27
2024/01/17 02:10:28;;;;;;;11.87;7.47;;;;;;;;;;5108966;28;20220;-26
2024/01/17 02:13:09;;;;;;;8.93;6.10;;;;;;;;;;5081558;28;20218;-25
2024/01/17 02:15:41;;;;;;;12.07;7.10;;;;;;;;;;5094075;28;20204;-26
2024/01/17 02:18:15;;;;;;;11.97;6.90;;;;;;;;;;5087225;28;20228;-26
2024/01/17 02:20:47;;;;;;;11.30;6.90;;;;;;;;;;5088018;28;20344;-27
2024/01/17 02:23:26;;;;;;;10.97;7.00;;;;;;;;;;5088564;28;20204;-26
2024/01/17 02:26:00;;;;;;;14.67;7.03;;;;;;;;;;5093712;28;20295;-26
2024/01/17 02:28:34;;;;;;;12.73;7.60;;;;;;;;;;5085739;28;20204;-25
2024/01/17 02:31:06;;;;;;;11.40;7.47;;;;;;;;;;5090158;28;20234;-27
2024/01/17 02:33:34;;;;;;;13.60;8.53;;;;;;;;;;5095194;28;20299;-25
2024/01/17 02:36:03;;;;;;;13.17;7.77;;;;;;;;;;5079644;28;20217;-27
2024/01/17 02:38:35;;;;;;;10.73;6.73;;;;;;;;;;5090158;28;20685;-25
2024/01/17 02:41:05;;;;;;;6.90;4.23;;;;;;;;;;5104405;28;20520;-24
2024/01/17 02:43:34;;;;;;;13.27;7.30;;;;;;;;;;5089521;28;20236;-26
2024/01/17 02:46:09;;;;;;;15.53;8.37;;;;;;;;;;5094446;28;20201;-26
2024/01/17 02:48:42;;;;;;;12.60;7.57;;;;;;;;;;5094591;28;20580;-26
2024/01/17 02:51:15;;;;;;;12.70;7.67;;;;;;;;;;5086963;28;20232;-24
2024/01/17 02:53:45;;;;;;;11.47;6.87;;;;;;;;;;5103013;28;20204;-26
2024/01/17 02:56:26;;;;;;;9.17;6.17;;;;;;;;;;5095779;28;20201;-26
2024/01/17 02:59:00;;;;;;;9.47;6.77;;;;;;;;;;5086307;28;20694;-27
2024/01/17 03:01:39;;;;;;;10.97;6.93;;;;;;;;;;5101242;28;20205;-25
2024/01/17 03:04:12;;;;;;;10.37;6.73;;;;;;;;;;5097456;28;20204;-26
2024/01/17 03:06:46;;;;;;;10.37;6.57;;;;;;;;;;5091145;28;20291;-26
2024/01/17 03:09:24;;;;;;;10.33;7.07;;;;;;;;;;5093680;28;20677;-27
2024/01/17 03:11:59;;;;;;;8.93;6.73;;;;;;;;;;5088634;28;20211;-25
2024/01/17 03:14:32;;;;;;;12.13;6.50;;;;;;;;;;5085374;28;20215;-27
2024/01/17 03:17:20;;;;;;;8.13;5.43;;;;;;;;;;5092812;28;20236;-25
2024/01/17 03:19:52;;;;;;;11.10;5.90;;;;;;;;;;5090028;28;20313;-26
2024/01/17 03:22:29;;;;;;;11.07;6.53;;;;;;;;;;5094186;28;20474;-26
2024/01/17 03:25:05;;;;;;;13.03;6.57;;;;;;;;;;5094328;28;20610;-25
2024/01/17 03:27:42;;;;;;;12.57;8.03;;;;;;;;;;5097789;28;20200;-26
2024/01/17 03:30:17;;;;;;;12.57;6.57;;;;;;;;;;5087020;28;20665;-25
2024/01/17 03:32:46;;;;;;;13.80;7.13;;;;;;;;;;5094289;28;20227;-25
2024/01/17 03:35:16;;;;;;;13.27;7.47;;;;;;;;;;5071911;28;20202;-27
2024/01/17 03:37:48;;;;;;;11.97;6.37;;;;;;;;;;5315600;22;20247;-27
2024/01/17 03:40:17;;;;;;;9.50;6.33;;;;;;;;;;5093039;28;20224;-26
2024/01/17 03:42:48;;;;;;;11.53;7.00;;;;;;;;;;5092995;28;20204;-25
2024/01/17 03:45:16;;;;;;;14.53;7.00;;;;;;;;;;5065370;28;20295;-27
2024/01/17 03:47:45;;;;;;;11.97;7.07;;;;;;;;;;5086030;28;20424;-27
2024/01/17 03:50:17;;;;;;;13.27;7.63;;;;;;;;;;5066942;28;20282;-25
2024/01/17 03:52:57;;;;;;;10.97;6.93;;;;;;;;;;5084210;28;20230;-26
2024/01/17 03:55:29;;;;;;;11.17;7.20;;;;;;;;;;5075393;28;20221;-26
2024/01/17 03:58:01;;;;;;;12.57;7.10;;;;;;;;;;5087198;28;20338;-25
2024/01/17 04:00:33;;;;;;;10.10;6.43;;;;;;;;;;5067686;28;20283;-28
2024/01/17 04:03:03;;;;;;;13.73;7.47;;;;;;;;;;5083424;28;20212;-28
2024/01/17 04:05:39;;;;;;;10.57;7.57;;;;;;;;;;5073837;28;20227;-27
2024/01/17 04:08:11;;;;;;;10.57;6.63;;;;;;;;;;5072777;28;20219;-26
2024/01/17 04:10:39;;;;;;;12.67;7.03;;;;;;;;;;5080086;28;20225;-27
2024/01/17 04:13:10;;;;;;;13.00;7.80;;;;;;;;;;5084079;28;20227;-27
2024/01/17 04:15:42;;;;;;;10.97;6.77;;;;;;;;;;5070707;28;20658;-28
2024/01/17 04:18:10;;;;;;;13.50;7.17;;;;;;;;;;5073353;28;20205;-27
2024/01/17 04:20:39;;;;;;;12.33;7.10;;;;;;;;;;5070125;28;20238;-27
2024/01/17 04:23:13;;;;;;;10.90;6.93;;;;;;;;;;5090065;28;20238;-26
2024/01/17 04:25:44;;;;;;;10.07;6.03;;;;;;;;;;5086496;28;20252;-27
2024/01/17 04:28:13;;;;;;;12.87;7.93;;;;;;;;;;5090408;28;20212;-27
2024/01/17 04:30:45;;;;;;;13.47;7.40;;;;;;;;;;5066093;28;20255;-25
2024/01/17 04:33:13;;;;;;;12.67;8.03;;;;;;;;;;5072154;28;20300;-28
2024/01/17 04:35:45;;;;;;;9.87;6.80;;;;;;;;;;5068838;28;20265;-27
2024/01/17 04:38:14;;;;;;;9.93;7.33;;;;;;;;;;5065566;28;20665;-27
2024/01/17 04:40:42;;;;;;;13.83;7.97;;;;;;;;;;5072958;28;20658;-25
2024/01/17 04:43:10;;;;;;;13.17;8.13;;;;;;;;;;5067780;28;20209;-25
2024/01/17 04:45:48;;;;;;;13.63;8.27;;;;;;;;;;5068881;28;20213;-28
2024/01/17 04:48:16;;;;;;;13.23;8.07;;;;;;;;;;5085314;28;20218;-26
2024/01/17 04:50:44;;;;;;;13.80;8.63;;;;;;;;;;5072951;28;20232;-27
2024/01/17 04:53:16;;;;;;;11.63;7.37;;;;;;;;;;5087365;28;20221;-25
2024/01/17 04:55:47;;;;;;;10.80;6.80;;;;;;;;;;5060908;28;20228;-25
2024/01/17 04:58:16;;;;;;;16.93;8.97;;;;;;;;;;5089045;28;20201;-27
2024/01/17 05:00:49;;;;;;;10.13;6.00;;;;;;;;;;5065429;28;20252;-27
2024/01/17 05:03:18;;;;;;;15.63;8.23;;;;;;;;;;5058751;28;20262;-26
2024/01/17 05:05:47;;;;;;;14.90;9.07;;;;;;;;;;5072522;28;20214;-27
2024/01/17 05:08:15;;;;;;;15.13;9.23;;;;;;;;;;5073285;28;20197;-27
2024/01/17 05:10:45;;;;;;;10.43;6.73;;;;;;;;;;5084972;28;20316;-26
2024/01/17 05:13:13;;;;;;;16.17;7.73;;;;;;;;;;5061624;28;20263;-25
2024/01/17 05:15:42;;;;;;;12.30;8.60;;;;;;;;;;5071978;28;20207;-25
2024/01/17 05:18:16;;;;;;;12.07;8.63;;;;;;;;;;5088479;28;20257;-27
2024/01/17 05:20:44;;;;;;;15.20;8.03;;;;;;;;;;5066203;28;20232;-26
2024/01/17 05:23:11;;;;;;;13.87;8.50;;;;;;;;;;5082498;28;20220;-26
2024/01/17 05:25:39;;;;;;;11.03;7.30;;;;;;;;;;5085072;28;20209;-28
2024/01/17 05:28:07;;;;;;;14.87;7.97;;;;;;;;;;5068513;28;20214;-28
2024/01/17 05:30:34;;;;;;;11.33;6.77;;;;;;;;;;5086407;28;20239;-26
2024/01/17 05:33:02;;;;;;;16.33;8.77;;;;;;;;;;5083393;28;20297;-25
2024/01/17 05:35:30;;;;;;;11.13;6.50;;;;;;;;;;5070167;28;20205;-27
2024/01/17 05:37:59;;;;;;;13.47;7.70;;;;;;;;;;5072892;28;20229;-28
2024/01/17 05:40:26;;;;;;;10.17;6.83;;;;;;;;;;5070663;28;20610;-28
2024/01/17 05:42:54;;;;;;;10.70;6.53;;;;;;;;;;5075701;28;20262;-26
2024/01/17 05:45:21;;;;;;;9.63;6.27;;;;;;;;;;5075339;28;20495;-26
2024/01/17 05:47:48;;;;;;;9.63;6.73;;;;;;;;;;5088192;28;20590;-27
2024/01/17 05:50:15;;;;;;;13.50;8.13;;;;;;;;;;5075525;28;20637;-26
2024/01/17 05:52:45;;;;;;;18.27;8.57;;;;;;;;;;5081117;28;20215;-25
2024/01/17 05:55:15;;;;;;;20.57;18.47;;;;;;;;;;5094958;28;20204;-27
2024/01/17 05:57:42;;;;;;;23.53;20.97;;;;;;;;;;5094115;28;20204;-27
2024/01/17 06:00:10;;;;;;;17.63;13.97;;;;;;;;;;5064055;28;20230;-27
2024/01/17 06:02:38;;;;;;;21.63;15.37;;;;;;;;;;5076394;28;20690;-25
2024/01/17 06:05:07;;;;;;;18.83;12.97;;;;;;;;;;5063208;28;20226;-28
2024/01/17 06:07:34;;;;;;;18.17;14.53;;;;;;;;;;5093072;28;20212;-27
2024/01/17 06:10:03;;;;;;;16.50;10.77;;;;;;;;;;5085372;28;20227;-26
2024/01/17 06:12:32;;;;;;;16.43;14.20;;;;;;;;;;5094291;28;20204;-25
2024/01/17 06:14:59;;;;;;;17.83;11.70;;;;;;;;;;5071540;28;20209;-27
2024/01/17 06:17:27;;;;;;;26.73;11.60;;;;;;;;;;5070306;28;20201;-27
2024/01/17 06:19:54;;;;;;;15.53;10.90;;;;;;;;;;5076716;28;20226;-27
2024/01/17 06:22:24;;;;;;;18.70;9.80;;;;;;;;;;5076225;28;20206;-27
2024/01/17 06:24:51;;;;;;;18.77;9.57;;;;;;;;;;5084358;28;20216;-27
2024/01/17 06:27:20;;;;;;;14.30;9.63;;;;;;;;;;5092497;28;20227;-25
2024/01/17 06:29:48;;;;;;;16.33;9.47;;;;;;;;;;5067155;28;20218;-26
2024/01/17 06:32:15;;;;;;;13.87;8.77;;;;;;;;;;5076894;28;20204;-26
2024/01/17 06:34:43;;;;;;;15.83;9.97;;;;;;;;;;5068387;28;20216;-27
2024/01/17 06:37:11;;;;;;;14.77;10.30;;;;;;;;;;5085635;28;20799;-26
2024/01/17 06:39:39;;;;;;;16.07;9.17;;;;;;;;;;5087382;28;20233;-25
2024/01/17 06:42:06;;;;;;;13.33;8.43;;;;;;;;;;5093325;28;20212;-27
2024/01/17 06:44:35;;;;;;;13.60;8.37;;;;;;;;;;5078921;28;20210;-26
2024/01/17 06:47:03;;;;;;;15.47;9.20;;;;;;;;;;5085428;28;20285;-26
2024/01/17 06:49:31;;;;;;;18.60;8.80;;;;;;;;;;5078171;28;20240;-25
2024/01/17 06:52:01;;;;;;;14.43;8.77;;;;;;;;;;5075568;28;20239;-24
2024/01/17 06:54:28;;;;;;;16.77;10.27;;;;;;;;;;5069851;28;20205;-26
2024/01/17 06:56:55;;;;;;;16.90;9.23;;;;;;;;;;5093021;28;20201;-25
2024/01/17 06:59:26;;;;;;;13.47;8.90;;;;;;;;;;5077309;28;20224;-24
2024/01/17 07:01:55;;;;;;;14.63;8.87;;;;;;;;;;5092148;28;20232;-27
2024/01/17 07:04:23;;;;;;;14.67;9.27;;;;;;;;;;5076723;28;20261;-29
2024/01/17 07:06:50;;;;;;;12.60;9.27;;;;;;;;;;5082655;28;20197;-26
2024/01/17 07:09:18;;;;;;;14.27;8.47;;;;;;;;;;5092397;28;20221;-25
2024/01/17 07:11:54;;;;;;;17.83;9.63;;;;;;;;;;5084369;28;20219;-26
2024/01/17 07:14:25;;;;;;;16.43;7.83;;;;;;;;;;5071166;28;20192;-25
2024/01/17 07:16:54;;;;;;;13.73;8.77;;;;;;;;;;5089292;28;20208;-27
2024/01/17 07:19:35;;;;;;;18.83;8.47;;;;;;;;;;5076152;28;20245;-26
2024/01/17 07:22:07;;;;;;;15.47;8.80;;;;;;;;;;5084796;28;20201;-24
2024/01/17 07:24:59;;;;;;;17.10;9.10;;;;;;;;;;5071325;28;20200;-26
2024/01/17 07:27:35;;;;;;;17.20;8.97;;;;;;;;;;5078410;28;20214;-24
2024/01/17 07:30:16;;;;;;;16.70;8.63;;;;;;;;;;5062785;28;20252;-25
2024/01/17 07:32:56;;;;;;;18.10;9.27;;;;;;;;;;5073648;28;20318;-26
2024/01/17 07:35:32;;;;;;;18.87;9.13;;;;;;;;;;5072031;28;20263;-25
2024/01/17 07:38:07;;;;;;;21.47;9.20;;;;;;;;;;5080609;28;20209;-26
2024/01/17 07:40:42;;;;;;;17.17;8.63;;;;;;;;;;5066466;28;20217;-25
2024/01/17 07:43:24;;;;;;;14.73;9.17;;;;;;;;;;5080013;28;20237;-26
2024/01/17 07:45:55;;;;;;;12.57;7.93;;;;;;;;;;5075196;28;20205;-25
2024/01/17 07:48:33;;;;;;;15.27;9.03;;;;;;;;;;5074520;28;20647;-27
2024/01/17 07:51:10;;;;;;;16.30;7.57;;;;;;;;;;5068118;28;20213;-27
2024/01/17 07:53:41;;;;;;;14.40;8.63;;;;;;;;;;5073873;28;20232;-27
2024/01/17 07:56:19;;;;;;;16.53;8.67;;;;;;;;;;5073941;28;20211;-25
2024/01/17 07:58:52;;;;;;;15.13;7.90;;;;;;;;;;5073349;28;20220;-26
2024/01/17 08:01:24;;;;;;;15.80;8.60;;;;;;;;;;5068717;28;20279;-26
2024/01/17 08:03:57;;;;;;;14.63;9.07;;;;;;;;;;5075457;28;20273;-26
2024/01/17 08:11:38;;;;;;;16.00;9.30;;;;;;;;;;5051054;28;20221;-26
2024/01/17 08:14:10;;;;;;;16.03;8.80;;;;;;;;;;5039566;28;20202;-26
2024/01/17 08:16:43;;;;;;;15.93;9.13;;;;;;;;;;5030669;28;20226;-27
2024/01/17 08:19:25;;;;;;;16.87;8.97;;;;;;;;;;5032743;28;20203;-26
2024/01/17 08:22:15;;;;;;;17.00;9.10;;;;;;;;;;5047737;28;20221;-27
2024/01/17 08:24:51;;;;;;;12.83;8.47;;;;;;;;;;5053928;28;20711;-27
2024/01/17 08:27:27;;;;;;;16.17;9.73;;;;;;;;;;5053642;28;20289;-27
2024/01/17 08:32:39;;;;;;;19.00;9.07;;;;;;;;;;5020136;28;20227;-26
2024/01/17 08:35:10;;;;;;;19.07;9.33;;;;;;;;;;5001249;28;20560;-26
2024/01/17 08:37:49;;;;;;;14.47;9.10;;;;;;;;;;5026539;28;20206;-25
2024/01/17 08:40:39;;;;;;;18.00;9.67;;;;;;;;;;5021091;28;20238;-25
2024/01/17 08:43:13;;;;;;;15.87;8.47;;;;;;;;;;5010240;28;20204;-26
2024/01/17 08:45:47;;;;;;;17.67;8.87;;;;;;;;;;5020689;28;20199;-25
2024/01/17 08:48:23;;;;;;;17.17;9.00;;;;;;;;;;5013625;28;20226;-27
2024/01/17 08:50:59;;;;;;;15.93;9.93;;;;;;;;;;5003423;28;20222;-26
2024/01/17 08:53:31;;;;;;;23.17;10.07;;;;;;;;;;5029516;28;20554;-27
2024/01/17 08:56:10;;;;;;;19.90;9.60;;;;;;;;;;5019871;28;20269;-26
2024/01/17 08:58:46;;;;;;;16.03;9.27;;;;;;;;;;5003806;28;20206;-25
2024/01/17 09:04:01;;;;;;;16.23;9.47;;;;;;;;;;5069252;28;20224;-32
2024/01/17 09:06:35;;;;;;;17.47;8.80;;;;;;;;;;5069396;28;20206;-38
2024/01/17 09:09:11;;;;;;;20.03;9.53;;;;;;;;;;5079657;28;20208;-33
2024/01/17 09:14:14;;;;;;;16.37;9.90;;;;;;;;;;5057535;28;20297;-32
2024/01/17 09:21:51;;;;;;;18.43;9.77;;;;;;;;;;5070842;28;20693;-29
2024/01/17 09:24:30;;;;;;;21.03;10.17;;;;;;;;;;5081403;28;20285;-30
2024/01/17 09:26:59;;;;;;;17.03;9.33;;;;;;;;;;5078922;28;20204;-30
2024/01/17 09:29:33;;;;;;;23.63;11.87;;;;;;;;;;5064004;28;20229;-33
2024/01/17 09:32:04;;;;;;;12.30;8.20;;;;;;;;;;5067780;28;20201;-36
2024/01/17 09:34:36;;;;;;;18.17;9.43;;;;;;;;;;5067565;28;20602;-34
2024/01/17 09:39:39;;;;;;;18.37;10.57;;;;;;;;;;5073283;28;20244;-31
2024/01/17 09:42:09;;;;;;;22.73;10.97;;;;;;;;;;5076764;28;20221;-31
2024/01/17 09:44:42;;;;;;;21.43;11.90;;;;;;;;;;5070735;28;20276;-32
2024/01/17 09:47:18;;;;;;;19.20;9.83;;;;;;;;;;5079666;28;20201;-30
2024/01/17 09:49:48;;;;;;;21.70;9.77;;;;;;;;;;5064952;28;20227;-32
2024/01/17 09:52:23;;;;;;;19.67;10.90;;;;;;;;;;5072479;28;20651;-37
2024/01/17 09:54:58;;;;;;;17.10;9.40;;;;;;;;;;5074096;28;20201;-35
2024/01/17 09:57:30;;;;;;;17.63;10.47;;;;;;;;;;5071715;28;20218;-33
2024/01/17 10:00:08;;;;;;;20.03;9.20;;;;;;;;;;5065003;28;20765;-36
2024/01/17 10:02:40;;;;;;;20.07;10.20;;;;;;;;;;5072117;28;20341;-32
2024/01/17 10:05:21;;;;;;;17.80;9.73;;;;;;;;;;5066955;28;20201;-33
2024/01/17 10:07:55;;;;;;;16.00;9.07;;;;;;;;;;5068255;28;20201;-31
2024/01/17 10:10:30;;;;;;;18.27;10.67;;;;;;;;;;5080592;28;20291;-35
2024/01/17 10:13:03;;;;;;;22.67;10.40;;;;;;;;;;5069053;28;20621;-32
2024/01/17 10:15:39;;;;;;;20.50;10.50;;;;;;;;;;5071635;28;20216;-30
2024/01/17 10:18:08;;;;;;;22.57;10.50;;;;;;;;;;5085437;28;20211;-31
2024/01/17 10:20:43;;;;;;;21.00;10.17;;;;;;;;;;5077854;28;20316;-38
2024/01/17 10:23:24;;;;;;;17.83;10.23;;;;;;;;;;5080330;28;20247;-32
2024/01/17 10:25:57;;;;;;;16.53;9.50;;;;;;;;;;5066152;28;20262;-34
2024/01/17 10:28:31;;;;;;;17.63;9.10;;;;;;;;;;5071137;28;20239;-37
2024/01/17 10:31:07;;;;;;;18.70;10.30;;;;;;;;;;5069659;28;20213;-32
2024/01/17 10:33:39;;;;;;;19.80;10.73;;;;;;;;;;5092819;28;20215;-31
2024/01/17 10:36:10;;;;;;;14.93;9.43;;;;;;;;;;5072463;28;20205;-37
2024/01/17 10:38:43;;;;;;;13.57;8.87;;;;;;;;;;5078254;28;20224;-33
2024/01/17 10:41:15;;;;;;;16.03;8.70;;;;;;;;;;5088491;28;20671;-30
2024/01/17 10:44:05;;;;;;;19.50;8.43;;;;;;;;;;5070956;28;20205;-37
2024/01/17 10:46:37;;;;;;;16.03;9.07;;;;;;;;;;5087717;28;20212;-31
2024/01/17 10:49:06;;;;;;;18.27;8.80;;;;;;;;;;5084788;28;20208;-33
2024/01/17 10:51:36;;;;;;;18.03;9.13;;;;;;;;;;5074083;28;20260;-36
2024/01/17 10:54:09;;;;;;;17.90;9.80;;;;;;;;;;5083566;28;20578;-34
2024/01/17 10:56:47;;;;;;;18.47;9.33;;;;;;;;;;5075147;28;20255;-36
2024/01/17 10:59:22;;;;;;;20.10;8.60;;;;;;;;;;5063890;28;20208;-34
2024/01/17 11:01:53;;;;;;;15.37;7.40;;;;;;;;;;5079846;28;20228;-34
2024/01/17 11:04:25;;;;;;;16.07;7.73;;;;;;;;;;5067438;28;20644;-34
2024/01/17 11:06:54;;;;;;;12.07;7.60;;;;;;;;;;5061809;28;20201;-35
2024/01/17 11:09:31;;;;;;;13.87;8.20;;;;;;;;;;5072043;28;20221;-34
2024/01/17 11:12:01;;;;;;;17.57;7.83;;;;;;;;;;5080851;28;20209;-32
2024/01/17 11:14:31;;;;;;;19.30;9.43;;;;;;;;;;5070526;28;20213;-36
2024/01/17 11:17:08;;;;;;;16.20;9.13;;;;;;;;;;5069611;28;20213;-32
2024/01/17 11:19:39;;;;;;;18.90;9.33;;;;;;;;;;5069793;28;20225;-36
2024/01/17 11:22:11;;;;;;;13.80;8.17;;;;;;;;;;5077849;28;20213;-32
2024/01/17 11:24:46;;;;;;;15.20;8.23;;;;;;;;;;5074637;28;20212;-31
2024/01/17 11:27:22;;;;;;;8.73;5.77;;;;;;;;;;5082558;28;20204;-32
2024/01/17 11:29:56;;;;;;;14.10;7.57;;;;;;;;;;5066528;28;20228;-37
2024/01/17 11:32:31;;;;;;;11.03;6.97;;;;;;;;;;5082673;28;20205;-35
2024/01/17 11:35:00;;;;;;;12.33;6.77;;;;;;;;;;5076463;28;20209;-36
2024/01/17 11:37:40;;;;;;;13.80;8.03;;;;;;;;;;5073553;28;20220;-31
2024/01/17 11:40:10;;;;;;;14.67;7.30;;;;;;;;;;5074144;28;20232;-33
2024/01/17 11:42:41;;;;;;;9.17;6.63;;;;;;;;;;5069588;28;20687;-34
2024/01/17 11:45:16;;;;;;;10.40;5.80;;;;;;;;;;5075109;28;20291;-34
2024/01/17 11:50:16;;;;;;;9.40;5.90;;;;;;;;;;5043852;28;20743;-33
2024/01/17 11:52:46;;;;;;;9.40;6.37;;;;;;;;;;5049142;28;20226;-31
2024/01/17 11:55:18;;;;;;;13.50;7.80;;;;;;;;;;5061583;28;20247;-34
2024/01/17 11:57:49;;;;;;;13.63;6.77;;;;;;;;;;5068890;28;20647;-33
2024/01/17 12:00:25;;;;;;;10.40;6.67;;;;;;;;;;5050279;28;20279;-32
2024/01/17 12:03:12;;;;;;;9.50;6.00;;;;;;;;;;5053978;28;20225;-31
2024/01/17 12:05:46;;;;;;;9.60;6.43;;;;;;;;;;5042505;28;20729;-35
2024/01/17 12:08:20;;;;;;;14.17;6.23;;;;;;;;;;5057544;28;20242;-35
2024/01/17 12:15:48;;;;;;;10.80;7.50;;;;;;;;;;5047625;28;20226;-31
2024/01/17 12:18:21;;;;;;;15.47;8.43;;;;;;;;;;5060478;28;20213;-33
2024/01/17 12:20:54;;;;;;;15.53;7.80;;;;;;;;;;5050666;28;20236;-32
2024/01/17 12:23:29;;;;;;;12.50;7.30;;;;;;;;;;5062059;28;20238;-31
2024/01/17 12:26:00;;;;;;;11.57;7.57;;;;;;;;;;5045990;28;20229;-33
2024/01/17 12:31:06;;;;;;;11.30;7.33;;;;;;;;;;5075866;28;20293;-31
2024/01/17 12:33:38;;;;;;;19.40;7.97;;;;;;;;;;5085392;28;20220;-33
2024/01/17 12:36:15;;;;;;;16.80;9.40;;;;;;;;;;5078601;28;20236;-35
2024/01/17 12:41:26;;;;;;;13.70;7.70;;;;;;;;;;5076967;28;20290;-33
2024/01/17 12:43:56;;;;;;;12.77;7.37;;;;;;;;;;5073302;28;20201;-30
2024/01/17 12:46:35;;;;;;;14.27;8.90;;;;;;;;;;5073405;28;20201;-34
2024/01/17 12:49:15;;;;;;;15.30;9.47;;;;;;;;;;5064998;28;20216;-33
2024/01/17 12:51:45;;;;;;;13.70;8.10;;;;;;;;;;5068596;28;20255;-31
2024/01/17 12:54:19;;;;;;;17.23;9.97;;;;;;;;;;5073148;28;20205;-35
2024/01/17 12:56:57;;;;;;;13.70;7.77;;;;;;;;;;5073342;28;20293;-29
2024/01/17 12:59:29;;;;;;;15.50;9.73;;;;;;;;;;5060525;28;20229;-37
2024/01/17 13:02:02;;;;;;;15.57;8.77;;;;;;;;;;5063115;28;20244;-33
2024/01/17 13:04:35;;;;;;;18.60;10.73;;;;;;;;;;5063509;28;20327;-39
2024/01/17 13:07:12;;;;;;;14.83;9.57;;;;;;;;;;5065196;28;20292;-33
2024/01/17 13:09:42;;;;;;;21.17;11.27;;;;;;;;;;5080737;28;20242;-32
2024/01/17 13:12:21;;;;;;;14.70;9.70;;;;;;;;;;5071175;28;20198;-34
2024/01/17 13:14:50;;;;;;;17.33;11.37;;;;;;;;;;5071975;28;20216;-36
2024/01/17 13:17:21;;;;;;;18.60;10.03;;;;;;;;;;5078950;28;20325;-31
2024/01/17 13:25:09;;;;;;;17.17;10.17;;;;;;;;;;5071099;28;20209;-32
2024/01/17 13:27:42;;;;;;;19.27;9.53;;;;;;;;;;5077562;28;20273;-33
2024/01/17 13:30:16;;;;;;;14.17;8.83;;;;;;;;;;5066668;28;20227;-31
2024/01/17 13:37:51;;;;;;;14.17;7.63;;;;;;;;;;5070961;28;20225;-25
2024/01/17 13:45:43;;;;;;;12.30;7.17;;;;;;;;;;5060444;28;20255;-31
2024/01/17 13:48:15;;;;;;;11.07;7.57;;;;;;;;;;5065569;28;20299;-31
2024/01/17 13:50:44;;;;;;;10.87;8.73;;;;;;;;;;5066336;28;20259;-37
2024/01/17 13:53:28;;;;;;;14.17;10.27;;;;;;;;;;5077564;28;20721;-35
2024/01/17 13:55:59;;;;;;;10.37;6.93;;;;;;;;;;5073113;28;20228;-36
2024/01/17 14:01:08;;;;;;;10.67;7.27;;;;;;;;;;5045967;28;20305;-35
2024/01/17 14:03:40;;;;;;;15.23;8.50;;;;;;;;;;5056762;28;20206;-33
2024/01/17 14:06:15;;;;;;;12.40;7.23;;;;;;;;;;5043825;28;20208;-34
2024/01/17 14:08:48;;;;;;;10.33;5.90;;;;;;;;;;5053621;28;20205;-33
2024/01/17 14:11:22;;;;;;;14.10;11.43;;;;;;;;;;5056242;28;20218;-36
2024/01/17 14:14:00;;;;;;;14.60;7.27;;;;;;;;;;5049877;28;20652;-33
2024/01/17 14:19:02;;;;;;;13.73;7.67;;;;;;;;;;5087687;28;20217;-31
2024/01/17 14:21:35;;;;;;;14.73;7.40;;;;;;;;;;5071707;28;20231;-31
2024/01/17 14:24:07;;;;;;;12.70;8.30;;;;;;;;;;5080351;28;20228;-30
2024/01/17 14:31:51;;;;;;;13.17;8.27;;;;;;;;;;5082682;28;20224;-34
2024/01/17 14:34:21;;;;;;;11.83;8.40;;;;;;;;;;5069830;28;20224;-33
2024/01/17 14:36:55;;;;;;;11.50;7.80;;;;;;;;;;5076533;28;20304;-34
2024/01/17 14:39:26;;;;;;;13.23;8.33;;;;;;;;;;5075722;28;20225;-34
2024/01/17 14:41:56;;;;;;;12.10;8.27;;;;;;;;;;5073112;28;20336;-31
2024/01/17 14:44:24;;;;;;;11.17;8.03;;;;;;;;;;5068813;28;20561;-34
2024/01/17 14:46:55;;;;;;;12.17;8.87;;;;;;;;;;5073925;28;20217;-33
2024/01/17 14:49:28;;;;;;;10.83;7.00;;;;;;;;;;5075575;23;20312;-31
2024/01/17 14:51:58;;;;;;;13.50;7.60;;;;;;;;;;5069713;28;20204;-33
2024/01/17 14:54:28;;;;;;;10.57;7.13;;;;;;;;;;5060217;28;20263;-32
2024/01/17 14:56:58;;;;;;;12.53;7.43;;;;;;;;;;5058348;28;20201;-33
2024/01/17 14:59:27;;;;;;;10.40;7.60;;;;;;;;;;5050047;28;20304;-28
2024/01/17 15:01:58;;;;;;;8.77;6.97;;;;;;;;;;5039393;28;20307;-33
2024/01/17 15:04:29;;;;;;;10.00;7.90;;;;;;;;;;5040583;28;20363;-31
2024/01/17 15:07:00;;;;;;;11.37;6.80;;;;;;;;;;5041170;28;20222;-29
2024/01/17 15:09:39;;;;;;;13.10;7.30;;;;;;;;;;5065778;28;20220;-33
2024/01/17 15:12:10;;;;;;;11.57;7.10;;;;;;;;;;5035090;28;20206;-36
2024/01/17 15:14:44;;;;;;;9.33;6.93;;;;;;;;;;5045068;28;20202;-34
2024/01/17 15:17:15;;;;;;;13.07;7.27;;;;;;;;;;5046311;28;20202;-35
2024/01/17 15:19:44;;;;;;;11.97;7.23;;;;;;;;;;5037181;28;20285;-29
2024/01/17 15:22:12;;;;;;;11.43;7.43;;;;;;;;;;5043240;28;20593;-32
2024/01/17 15:24:44;;;;;;;10.93;7.20;;;;;;;;;;5054852;28;20216;-34
2024/01/17 15:27:12;;;;;;;10.30;6.73;;;;;;;;;;5051656;28;20209;-30
2024/01/17 15:29:42;;;;;;;13.53;6.90;;;;;;;;;;5046023;28;20225;-35
2024/01/17 15:32:15;;;;;;;10.50;6.80;;;;;;;;;;5038342;28;20285;-34
2024/01/17 15:42:50;;;;;;;11.50;6.63;;;;;;;;;;5070033;28;20226;-37
2024/01/17 15:45:19;;;;;;;11.87;6.83;;;;;;;;;;5057119;28;20216;-33
2024/01/17 15:47:55;;;;;;;10.97;7.10;;;;;;;;;;5087408;28;20205;-35
2024/01/17 15:50:23;;;;;;;12.10;6.57;;;;;;;;;;5069480;28;20316;-33
2024/01/17 15:52:56;;;;;;;11.60;6.43;;;;;;;;;;5063988;28;20292;-35
2024/01/17 15:55:29;;;;;;;11.83;6.63;;;;;;;;;;5073977;28;20217;-36
2024/01/17 15:58:03;;;;;;;10.47;7.37;;;;;;;;;;5064889;28;20271;-34
2024/01/17 16:00:37;;;;;;;13.13;8.50;;;;;;;;;;5073960;28;20236;-34
2024/01/17 16:03:17;;;;;;;13.07;8.33;;;;;;;;;;5073810;28;20343;-35
2024/01/17 16:05:47;;;;;;;9.93;6.87;;;;;;;;;;5055613;28;20205;-31
2024/01/17 16:08:17;;;;;;;10.77;7.00;;;;;;;;;;5073812;28;20240;-33